createdAt,value
2023-01-29T14:47:51.320Z,101278.66
2023-01-29T14:50:32.820Z,101276.94
2023-01-29T14:53:02.191Z,101278.63
2023-01-29T14:55:40.426Z,101282.78
2023-01-29T14:58:11.133Z,101283.66
2023-01-29T15:00:38.719Z,101286.34
2023-01-29T15:03:12.138Z,101288.19
2023-01-29T15:05:39.115Z,101287.41
2023-01-29T15:08:30.181Z,101291.81
2023-01-29T15:11:16.529Z,101287.38
2023-01-29T15:14:05.219Z,101288.94
2023-01-29T15:16:35.858Z,101294.19
2023-01-29T15:19:13.975Z,101290.78
2023-01-29T15:22:00.406Z,101304.56
2023-01-29T15:24:26.952Z,101308.09
2023-01-29T15:26:54.285Z,101299.41
2023-01-29T15:29:25.884Z,101295.13
2023-01-29T15:31:52.577Z,101303.81
2023-01-29T15:34:19.197Z,101305.56
2023-01-29T15:36:46.504Z,101313.44
2023-01-29T15:39:15.464Z,101309.06
2023-01-29T15:41:42.540Z,101302.81
2023-01-29T15:44:19.415Z,101304.66
2023-01-29T15:46:49.910Z,101309.06
2023-01-29T15:49:23.034Z,101319.41
2023-01-29T15:51:56.827Z,101321.13
2023-01-29T15:54:24.373Z,101316.81
2023-01-29T15:56:52.208Z,101319.41
2023-01-29T15:59:31.339Z,101315.00
2023-01-29T16:01:57.950Z,101316.53
2023-01-29T16:04:27.061Z,101321.53
2023-01-29T16:06:54.437Z,101326.81
2023-01-29T16:09:23.713Z,101318.13
2023-01-29T16:11:51.428Z,101335.56
2023-01-29T16:14:20.603Z,101338.25
2023-01-29T16:16:48.644Z,101341.72
2023-01-29T16:19:21.488Z,101342.63
2023-01-29T16:21:50.701Z,101346.88
2023-01-29T16:24:22.515Z,101343.47
2023-01-29T16:26:50.420Z,101345.25
2023-01-29T16:29:19.003Z,101348.66
2023-01-29T16:31:47.147Z,101359.94
2023-01-29T16:34:35.509Z,101357.38
2023-01-29T16:37:03.161Z,101354.56
2023-01-29T16:39:29.645Z,101356.47
2023-01-29T16:42:17.610Z,101366.03
2023-01-29T16:44:51.013Z,101357.88
2023-01-29T16:47:23.863Z,101364.53
2023-01-29T16:49:51.582Z,101355.38
2023-01-29T16:52:29.706Z,101354.66
2023-01-29T16:55:00.680Z,101354.41
2023-01-29T16:57:30.181Z,101355.44
2023-01-29T16:59:57.984Z,101354.53
2023-01-29T17:02:24.514Z,101361.94
2023-01-29T17:04:52.903Z,101365.84
2023-01-29T17:07:22.172Z,101361.34
2023-01-29T17:09:51.900Z,101361.28
2023-01-29T17:12:20.028Z,101378.38
2023-01-29T17:15:12.558Z,101369.84
2023-01-29T17:17:39.891Z,101364.81
2023-01-29T17:20:11.759Z,101369.91
2023-01-29T17:22:40.704Z,101374.13
2023-01-29T17:25:07.410Z,101369.84
2023-01-29T17:27:33.907Z,101380.03
2023-01-29T17:30:00.484Z,101379.28
2023-01-29T17:32:42.908Z,101374.94
2023-01-29T17:35:13.054Z,101381.00
2023-01-29T17:37:39.689Z,101384.47
2023-01-29T17:40:17.504Z,101384.47
2023-01-29T17:42:44.077Z,101377.94
2023-01-29T17:45:10.928Z,101385.59
2023-01-29T17:47:37.395Z,101382.25
2023-01-29T17:50:13.687Z,101384.78
2023-01-29T17:52:40.245Z,101375.06
2023-01-29T17:55:07.025Z,101375.16
2023-01-29T17:57:33.636Z,101374.31
2023-01-29T18:00:00.164Z,101374.06
2023-01-29T18:02:28.986Z,101367.94
2023-01-29T18:04:56.289Z,101380.88
2023-01-29T18:07:22.855Z,101379.13
2023-01-29T18:09:49.296Z,101381.91
2023-01-29T18:12:16.008Z,101378.38
2023-01-29T18:14:42.691Z,101374.84
2023-01-29T18:17:09.145Z,101377.44
2023-01-29T18:19:35.638Z,101384.63
2023-01-29T18:22:02.377Z,101376.34
2023-01-29T18:24:29.062Z,101384.47
2023-01-29T18:26:55.567Z,101383.41
2023-01-29T18:29:22.129Z,101380.53
2023-01-29T18:31:49.468Z,101380.22
2023-01-29T18:34:16.071Z,101376.13
2023-01-29T18:36:46.717Z,101380.25
2023-01-29T18:39:16.477Z,101379.38
2023-01-29T18:41:43.004Z,101373.16
2023-01-29T18:44:12.536Z,101376.47
2023-01-29T18:46:39.036Z,101373.81
2023-01-29T18:49:05.572Z,101361.88
2023-01-29T18:51:32.653Z,101368.81
2023-01-29T18:53:59.134Z,101378.28
2023-01-29T18:56:25.681Z,101377.53
2023-01-29T18:58:55.851Z,101379.19
2023-01-29T19:01:22.566Z,101380.03
2023-01-29T19:03:49.131Z,101375.53
2023-01-29T19:06:15.631Z,101371.69
2023-01-29T19:08:43.082Z,101370.06
2023-01-29T19:11:12.399Z,101380.03
2023-01-29T19:13:38.950Z,101380.56
2023-01-29T19:16:09.138Z,101383.34
2023-01-29T19:18:35.707Z,101383.19
2023-01-29T19:21:06.326Z,101384.94
2023-01-29T19:23:32.932Z,101383.34
2023-01-29T19:25:59.363Z,101388.34
2023-01-29T19:28:25.922Z,101386.56
2023-01-29T19:30:52.426Z,101387.44
2023-01-29T19:33:18.938Z,101387.34
2023-01-29T19:35:45.607Z,101394.34
2023-01-29T19:38:12.360Z,101392.44
2023-01-29T19:40:39.156Z,101395.13
2023-01-29T19:43:06.108Z,101395.94
2023-01-29T19:45:43.155Z,101404.81
2023-01-29T19:48:26.478Z,101409.03
2023-01-29T19:50:54.629Z,101402.94
2023-01-29T19:53:21.120Z,101398.41
2023-01-29T19:55:48.327Z,101405.53
2023-01-29T19:58:14.801Z,101405.91
2023-01-29T20:00:41.313Z,101402.50
2023-01-29T20:03:09.341Z,101404.06
2023-01-29T20:05:37.511Z,101406.59
2023-01-29T20:08:04.045Z,101400.16
2023-01-29T20:10:30.547Z,101399.38
2023-01-29T20:12:57.186Z,101401.97
2023-01-29T20:15:23.679Z,101402.69
2023-01-29T20:17:50.166Z,101407.03
2023-01-29T20:20:17.612Z,101403.69
2023-01-29T20:22:44.696Z,101405.19
2023-01-29T20:25:13.733Z,101407.84
2023-01-29T20:27:40.545Z,101409.66
2023-01-29T20:30:08.219Z,101412.41
2023-01-29T20:32:35.339Z,101416.84
2023-01-29T20:35:01.904Z,101411.31
2023-01-29T20:37:28.585Z,101415.72
2023-01-29T20:39:55.016Z,101412.25
2023-01-29T20:42:21.599Z,101410.38
2023-01-29T20:44:48.085Z,101408.69
2023-01-29T20:47:14.608Z,101414.09
2023-01-29T20:49:41.069Z,101415.00
2023-01-29T20:52:08.712Z,101418.59
2023-01-29T20:54:35.352Z,101417.50
2023-01-29T20:57:01.957Z,101416.75
2023-01-29T20:59:29.256Z,101416.94
2023-01-29T21:01:56.029Z,101423.16
2023-01-29T21:04:22.612Z,101422.97
2023-01-29T21:06:49.109Z,101419.69
2023-01-29T21:09:15.657Z,101417.31
2023-01-29T21:11:44.991Z,101418.06
2023-01-29T21:14:11.774Z,101424.28
2023-01-29T21:16:38.319Z,101417.28
2023-01-29T21:19:04.895Z,101415.22
2023-01-29T21:21:31.351Z,101409.88
2023-01-29T21:23:58.539Z,101414.13
2023-01-29T21:26:26.120Z,101406.56
2023-01-29T21:28:52.664Z,101411.97
2023-01-29T21:31:19.234Z,101411.41
2023-01-29T21:33:45.708Z,101406.41
2023-01-29T21:36:12.553Z,101405.88
2023-01-29T21:38:39.837Z,101407.72
2023-01-29T21:41:08.910Z,101402.97
2023-01-29T21:43:35.847Z,101402.19
2023-01-29T21:46:11.477Z,101394.03
2023-01-29T21:48:38.933Z,101394.06
2023-01-29T21:51:05.664Z,101394.69
2023-01-29T21:53:32.430Z,101388.28
2023-01-29T21:55:59.949Z,101397.44
2023-01-29T21:58:26.444Z,101390.88
2023-01-29T22:00:52.954Z,101393.31
2023-01-29T22:03:19.421Z,101389.25
2023-01-29T22:05:45.946Z,101386.50
2023-01-29T22:08:12.410Z,101391.44
2023-01-29T22:10:39.105Z,101394.66
2023-01-29T22:13:05.796Z,101386.47
2023-01-29T22:15:32.321Z,101386.16
2023-01-29T22:17:58.855Z,101383.97
2023-01-29T22:20:30.337Z,101381.09
2023-01-29T22:22:58.496Z,101382.13
2023-01-29T22:25:24.991Z,101382.19
2023-01-29T22:27:51.679Z,101380.16
2023-01-29T22:30:18.684Z,101378.13
2023-01-29T22:32:45.406Z,101381.16
2023-01-29T22:35:11.967Z,101374.31
2023-01-29T22:37:38.476Z,101379.84
2023-01-29T22:40:05.220Z,101375.19
2023-01-29T22:42:31.811Z,101379.56
2023-01-29T22:44:58.303Z,101377.06
2023-01-29T22:47:24.779Z,101372.50
2023-01-29T22:49:52.446Z,101373.94
2023-01-29T22:52:22.441Z,101370.47
2023-01-29T22:54:48.950Z,101371.06
2023-01-29T22:57:15.581Z,101365.44
2023-01-29T22:59:42.072Z,101364.56
2023-01-29T23:02:09.068Z,101367.03
2023-01-29T23:04:35.680Z,101362.63
2023-01-29T23:07:02.437Z,101359.31
2023-01-29T23:09:28.915Z,101362.91
2023-01-29T23:11:55.417Z,101363.94
2023-01-29T23:14:21.924Z,101356.94
2023-01-29T23:16:48.403Z,101353.41
2023-01-29T23:19:14.841Z,101356.88
2023-01-29T23:21:41.351Z,101346.44
2023-01-29T23:24:08.543Z,101348.22
2023-01-29T23:26:53.753Z,101345.66
2023-01-29T23:29:20.365Z,101344.38
2023-01-29T23:31:47.037Z,101345.78
2023-01-29T23:34:14.156Z,101334.88
2023-01-29T23:36:41.033Z,101345.09
2023-01-29T23:39:07.549Z,101346.91
2023-01-29T23:41:34.111Z,101334.25
2023-01-29T23:44:00.573Z,101333.31
2023-01-29T23:46:27.103Z,101330.78
2023-01-29T23:48:53.637Z,101329.56
2023-01-29T23:51:20.129Z,101334.31
2023-01-29T23:53:46.645Z,101334.59
2023-01-29T23:56:13.471Z,101334.19
2023-01-29T23:58:39.986Z,101334.00
